createdAt,value
2019-03-31T00:00:52.275Z,37.10
2019-03-31T00:03:22.265Z,40.47
2019-03-31T00:05:52.210Z,32.40
2019-03-31T00:08:22.190Z,34.93
2019-03-31T00:10:52.146Z,34.77
2019-03-31T00:13:22.140Z,25.53
2019-03-31T00:15:52.086Z,26.10
2019-03-31T00:18:22.070Z,26.03
2019-03-31T00:20:52.052Z,23.67
2019-03-31T00:23:22.009Z,22.43
2019-03-31T00:25:53.621Z,22.50
2019-03-31T00:28:23.577Z,21.40
2019-03-31T00:30:54.086Z,21.30
2019-03-31T00:33:24.036Z,21.07
2019-03-31T00:35:54.188Z,21.37
2019-03-31T00:38:24.135Z,19.97
2019-03-31T00:40:54.107Z,19.97
2019-03-31T00:43:24.072Z,20.67
2019-03-31T00:45:54.038Z,22.07
2019-03-31T00:48:24.001Z,23.07
2019-03-31T00:50:53.966Z,21.97
2019-03-31T00:53:23.924Z,20.07
2019-03-31T00:55:53.899Z,21.37
2019-03-31T00:58:23.861Z,20.93
2019-03-31T01:01:01.239Z,23.03
2019-03-31T01:03:34.731Z,25.30
2019-03-31T01:06:05.340Z,21.93
2019-03-31T01:08:35.692Z,19.80
2019-03-31T01:11:10.286Z,21.87
2019-03-31T01:13:40.838Z,21.77
2019-03-31T01:16:12.769Z,22.67
2019-03-31T01:18:43.289Z,23.57
2019-03-31T01:21:13.326Z,21.90
2019-03-31T01:23:43.346Z,22.23
2019-03-31T01:26:15.213Z,19.47
2019-03-31T01:28:45.223Z,20.00
2019-03-31T01:31:15.197Z,21.10
2019-03-31T01:33:45.147Z,21.53
2019-03-31T01:36:16.087Z,20.33
2019-03-31T01:38:46.049Z,20.37
2019-03-31T01:41:16.366Z,19.60
2019-03-31T01:43:46.319Z,20.17
2019-03-31T01:46:18.499Z,19.13
2019-03-31T01:48:48.452Z,19.57
2019-03-31T01:51:18.432Z,20.10
2019-03-31T01:53:48.382Z,19.77
2019-03-31T01:56:18.762Z,19.97
2019-03-31T01:58:48.711Z,19.23
2019-03-31T02:01:19.854Z,20.60
2019-03-31T02:03:49.803Z,20.80
2019-03-31T02:06:19.778Z,20.47
2019-03-31T02:08:49.724Z,20.30
2019-03-31T02:11:19.704Z,21.03
2019-03-31T02:13:49.665Z,21.40
2019-03-31T02:16:19.630Z,21.90
2019-03-31T02:18:49.578Z,22.77
2019-03-31T02:21:19.551Z,20.90
2019-03-31T02:23:49.512Z,22.13
2019-03-31T02:26:19.488Z,22.00
2019-03-31T02:28:49.439Z,21.43
2019-03-31T02:31:19.422Z,21.47
2019-03-31T02:33:49.379Z,19.97
2019-03-31T02:36:19.362Z,20.17
2019-03-31T02:38:49.317Z,20.60
2019-03-31T02:41:19.291Z,20.23
2019-03-31T02:43:49.239Z,20.27
2019-03-31T02:46:19.213Z,20.30
2019-03-31T02:48:49.179Z,21.03
2019-03-31T02:51:19.333Z,20.27
2019-03-31T02:53:49.286Z,19.17
2019-03-31T02:56:19.823Z,19.63
2019-03-31T02:58:51.810Z,19.90
2019-03-31T03:01:24.433Z,18.90
2019-03-31T03:03:55.728Z,21.10
2019-03-31T03:06:27.737Z,20.73
2019-03-31T03:08:59.135Z,19.40
2019-03-31T03:11:31.460Z,19.40
2019-03-31T03:14:03.862Z,19.63
2019-03-31T03:16:33.820Z,18.83
2019-03-31T03:19:04.430Z,19.73
2019-03-31T03:21:34.500Z,20.63
2019-03-31T03:24:04.526Z,18.53
2019-03-31T03:26:34.501Z,18.53
2019-03-31T03:29:04.446Z,19.33
2019-03-31T03:31:34.432Z,19.70
2019-03-31T03:34:04.397Z,19.50
2019-03-31T03:36:34.359Z,20.10
2019-03-31T03:39:06.731Z,18.53
2019-03-31T03:41:36.771Z,19.93
2019-03-31T03:44:06.722Z,18.57
2019-03-31T03:46:36.700Z,18.03
2019-03-31T03:49:06.686Z,17.77
2019-03-31T03:51:36.687Z,18.67
2019-03-31T03:54:06.716Z,18.53
2019-03-31T03:56:36.755Z,18.50
2019-03-31T03:59:06.715Z,17.70
2019-03-31T04:01:36.740Z,17.77
2019-03-31T04:04:06.745Z,18.03
2019-03-31T04:06:36.716Z,18.13
2019-03-31T04:09:07.748Z,18.30
2019-03-31T04:11:37.712Z,18.20
2019-03-31T04:14:07.674Z,18.00
2019-03-31T04:16:37.644Z,18.83
2019-03-31T04:19:08.570Z,18.90
2019-03-31T04:21:38.535Z,18.07
2019-03-31T04:24:08.498Z,16.50
2019-03-31T04:26:38.466Z,18.43
2019-03-31T04:29:08.421Z,18.23
2019-03-31T04:31:38.407Z,16.77
2019-03-31T04:34:09.438Z,17.60
2019-03-31T04:36:39.413Z,18.40
2019-03-31T04:39:09.359Z,18.93
2019-03-31T04:41:39.345Z,18.13
2019-03-31T04:44:09.291Z,17.97
2019-03-31T04:46:39.267Z,19.17
2019-03-31T04:49:09.220Z,18.77
2019-03-31T04:51:39.223Z,18.43
2019-03-31T04:54:09.184Z,17.83
2019-03-31T04:56:39.228Z,18.53
2019-03-31T04:59:09.183Z,19.03
2019-03-31T05:01:39.169Z,20.30
2019-03-31T05:04:09.227Z,19.60
2019-03-31T05:06:39.200Z,21.33
2019-03-31T05:09:09.157Z,24.30
2019-03-31T05:11:39.136Z,26.87
2019-03-31T05:14:09.090Z,25.93
2019-03-31T05:16:39.081Z,25.47
2019-03-31T05:19:09.032Z,24.70
2019-03-31T05:21:39.011Z,25.70
2019-03-31T05:24:08.963Z,25.80
2019-03-31T05:26:38.935Z,26.70
2019-03-31T05:29:08.883Z,25.67
2019-03-31T05:31:38.854Z,26.13
2019-03-31T05:34:19.096Z,25.00
2019-03-31T05:36:40.402Z,25.70
2019-03-31T05:39:10.360Z,24.97
2019-03-31T05:41:40.347Z,26.07
2019-03-31T05:44:10.304Z,25.13
2019-03-31T05:46:40.285Z,25.90
2019-03-31T05:49:10.352Z,26.83
2019-03-31T05:51:40.302Z,25.17
2019-03-31T05:54:10.261Z,25.77
2019-03-31T05:56:40.244Z,25.27
2019-03-31T05:59:10.192Z,27.27
2019-03-31T06:01:40.179Z,25.37
2019-03-31T06:04:10.137Z,25.50
2019-03-31T06:06:40.211Z,28.77
2019-03-31T06:09:10.173Z,26.93
2019-03-31T06:11:40.152Z,27.67
2019-03-31T06:14:10.099Z,27.40
2019-03-31T06:16:40.084Z,26.53
2019-03-31T06:19:10.030Z,26.97
2019-03-31T06:21:40.008Z,27.47
2019-03-31T06:24:10.008Z,27.17
2019-03-31T06:26:39.948Z,27.47
2019-03-31T06:29:09.909Z,28.90
2019-03-31T06:31:39.884Z,28.27
2019-03-31T06:34:09.863Z,28.20
2019-03-31T06:36:40.251Z,29.13
2019-03-31T06:39:10.312Z,28.93
2019-03-31T06:41:40.328Z,27.60
2019-03-31T06:44:10.327Z,28.40
2019-03-31T06:46:40.302Z,29.20
2019-03-31T06:49:10.518Z,29.73
2019-03-31T06:51:40.784Z,31.57
2019-03-31T06:54:10.844Z,31.67
2019-03-31T06:56:40.814Z,31.80
2019-03-31T06:59:10.751Z,30.23
2019-03-31T07:01:40.756Z,31.33
2019-03-31T07:04:10.712Z,31.80
2019-03-31T07:06:40.692Z,30.50
2019-03-31T07:09:10.671Z,33.30
2019-03-31T07:11:40.631Z,33.33
2019-03-31T07:14:10.624Z,33.00
2019-03-31T07:16:40.583Z,33.33
2019-03-31T07:19:10.569Z,34.47
2019-03-31T07:21:40.527Z,34.17
2019-03-31T07:24:10.561Z,32.77
2019-03-31T07:26:40.521Z,34.93
2019-03-31T07:29:10.506Z,33.87
2019-03-31T07:31:40.467Z,33.57
2019-03-31T07:34:11.414Z,33.30
2019-03-31T07:36:41.386Z,34.60
2019-03-31T07:39:11.511Z,34.83
2019-03-31T07:41:41.539Z,31.80
2019-03-31T07:44:15.164Z,32.60
2019-03-31T07:46:43.217Z,31.47
2019-03-31T07:49:13.204Z,32.47
2019-03-31T07:51:43.170Z,33.97
2019-03-31T07:54:13.245Z,35.77
2019-03-31T07:56:45.038Z,37.07
2019-03-31T07:59:15.017Z,33.77
2019-03-31T08:01:44.998Z,34.00
2019-03-31T08:04:15.002Z,37.07
2019-03-31T08:06:44.961Z,34.53
2019-03-31T08:09:14.942Z,36.07
2019-03-31T08:11:44.915Z,35.03
2019-03-31T08:14:14.905Z,35.33
2019-03-31T08:16:44.875Z,36.17
2019-03-31T08:19:14.872Z,36.47
2019-03-31T08:21:44.823Z,37.90
2019-03-31T08:24:14.803Z,36.73
2019-03-31T08:26:44.765Z,36.37
2019-03-31T08:29:14.748Z,34.70
2019-03-31T08:31:44.707Z,37.33
2019-03-31T08:34:14.691Z,36.33
2019-03-31T08:36:44.652Z,37.00
2019-03-31T08:39:14.646Z,35.17
2019-03-31T08:41:44.604Z,38.20
2019-03-31T08:44:14.587Z,36.23
2019-03-31T08:46:44.551Z,37.20
2019-03-31T08:49:14.535Z,36.90
2019-03-31T08:51:44.500Z,37.20
2019-03-31T08:54:14.482Z,36.93
2019-03-31T08:56:44.442Z,36.80
2019-03-31T08:59:14.423Z,38.53
2019-03-31T09:01:45.155Z,38.13
2019-03-31T09:04:15.140Z,37.63
2019-03-31T09:06:45.100Z,37.73
2019-03-31T09:09:15.082Z,39.00
2019-03-31T09:11:45.043Z,38.90
2019-03-31T09:14:15.023Z,40.03
2019-03-31T09:16:44.984Z,39.60
2019-03-31T09:19:15.078Z,39.33
2019-03-31T09:21:45.031Z,40.00
2019-03-31T09:24:15.006Z,40.30
2019-03-31T09:26:44.975Z,40.27
2019-03-31T09:29:14.947Z,40.10
2019-03-31T09:31:44.901Z,40.90
2019-03-31T09:34:14.879Z,38.17
2019-03-31T09:36:44.845Z,37.27
2019-03-31T09:39:14.832Z,39.00
2019-03-31T09:41:44.802Z,41.60
2019-03-31T09:44:14.892Z,40.50
2019-03-31T09:46:44.839Z,38.60
2019-03-31T09:49:14.822Z,40.33
2019-03-31T09:51:44.789Z,40.70
2019-03-31T09:54:14.768Z,39.73
2019-03-31T09:56:44.735Z,41.80
2019-03-31T09:59:14.716Z,43.00
2019-03-31T10:01:44.679Z,40.80
2019-03-31T10:04:14.650Z,40.60
2019-03-31T10:06:44.611Z,37.90
2019-03-31T10:09:14.596Z,39.10
2019-03-31T10:11:44.555Z,40.77
2019-03-31T10:14:14.535Z,42.93
2019-03-31T10:16:44.504Z,40.80
2019-03-31T10:19:14.483Z,39.03
2019-03-31T10:21:44.458Z,39.03
2019-03-31T10:24:14.423Z,40.40
2019-03-31T10:26:44.382Z,39.33
2019-03-31T10:29:14.355Z,40.60
2019-03-31T10:31:44.321Z,39.07
2019-03-31T10:34:14.377Z,37.27
2019-03-31T10:36:45.113Z,37.97
2019-03-31T10:39:15.211Z,37.40
2019-03-31T10:41:45.328Z,38.10
2019-03-31T10:44:15.479Z,36.50
2019-03-31T10:46:45.469Z,39.00
2019-03-31T10:49:15.540Z,35.63
2019-03-31T10:51:45.598Z,36.43
2019-03-31T10:54:15.574Z,35.67
2019-03-31T10:56:45.540Z,36.17
2019-03-31T10:59:16.486Z,37.23
2019-03-31T11:01:46.520Z,35.50
2019-03-31T11:04:16.505Z,36.23
2019-03-31T11:06:58.260Z,35.57
2019-03-31T11:09:18.116Z,35.90
2019-03-31T11:11:48.072Z,34.03
2019-03-31T11:14:18.055Z,34.70
2019-03-31T11:16:48.016Z,36.07
2019-03-31T11:19:17.995Z,35.83
2019-03-31T11:21:49.592Z,36.60
2019-03-31T11:24:19.580Z,36.00
2019-03-31T11:26:49.548Z,32.60
2019-03-31T11:29:19.531Z,31.47
2019-03-31T11:31:49.498Z,33.07
2019-03-31T11:34:19.847Z,32.60
2019-03-31T11:36:49.884Z,32.30
2019-03-31T11:39:19.876Z,32.77
2019-03-31T11:41:49.846Z,31.10
2019-03-31T11:44:19.835Z,29.73
2019-03-31T11:46:50.252Z,34.80
2019-03-31T11:49:21.025Z,34.03
2019-03-31T11:51:51.786Z,30.33
2019-03-31T11:54:21.794Z,30.43
2019-03-31T11:56:51.754Z,32.37
2019-03-31T11:59:22.330Z,32.10
2019-03-31T12:01:53.573Z,28.20
2019-03-31T12:04:24.316Z,30.10
2019-03-31T12:06:55.246Z,28.67
2019-03-31T12:09:25.842Z,30.03
2019-03-31T12:11:56.087Z,31.00
2019-03-31T12:14:26.104Z,28.50
2019-03-31T12:16:56.491Z,30.97
2019-03-31T12:19:27.409Z,27.80
2019-03-31T12:21:58.531Z,30.03
2019-03-31T12:24:29.012Z,28.63
2019-03-31T12:26:59.792Z,26.50
2019-03-31T12:29:29.815Z,27.47
2019-03-31T12:32:00.306Z,26.17
2019-03-31T12:34:30.390Z,26.10
2019-03-31T12:37:01.708Z,25.80
2019-03-31T12:39:33.833Z,26.43
2019-03-31T12:42:04.612Z,24.47
2019-03-31T12:44:36.310Z,24.57
2019-03-31T12:47:07.749Z,24.80
2019-03-31T12:49:38.364Z,23.93
2019-03-31T12:52:09.187Z,25.17
2019-03-31T12:54:39.997Z,24.73
2019-03-31T12:57:11.636Z,24.77
2019-03-31T12:59:43.266Z,24.27
2019-03-31T13:02:14.057Z,25.37
2019-03-31T13:04:44.779Z,23.90
2019-03-31T13:07:15.196Z,26.77
2019-03-31T13:09:45.867Z,25.33
2019-03-31T13:12:15.882Z,25.23
2019-03-31T13:14:45.862Z,23.67
2019-03-31T13:17:15.831Z,25.23
2019-03-31T13:19:45.812Z,24.77
2019-03-31T13:22:15.767Z,25.30
2019-03-31T13:24:45.755Z,26.37
2019-03-31T13:27:15.798Z,26.17
2019-03-31T13:29:45.794Z,25.80
2019-03-31T13:32:15.761Z,27.00
2019-03-31T13:34:45.761Z,24.57
2019-03-31T13:37:15.772Z,26.37
2019-03-31T13:39:46.844Z,23.03
2019-03-31T13:42:16.804Z,23.57
2019-03-31T13:44:46.955Z,22.83
2019-03-31T13:47:16.941Z,22.73
2019-03-31T13:49:46.907Z,22.63
2019-03-31T13:52:16.900Z,22.27
2019-03-31T13:54:46.844Z,22.80
2019-03-31T13:57:17.284Z,22.67
2019-03-31T13:59:47.464Z,23.97
2019-03-31T14:02:17.442Z,22.20
2019-03-31T14:04:51.870Z,22.10
2019-03-31T14:07:19.086Z,23.87
2019-03-31T14:09:49.047Z,24.30
2019-03-31T14:12:19.027Z,24.37
2019-03-31T14:14:48.990Z,27.07
2019-03-31T14:17:18.972Z,26.80
2019-03-31T14:19:48.922Z,25.73
2019-03-31T14:22:18.906Z,26.37
2019-03-31T14:24:49.073Z,27.17
2019-03-31T14:27:19.051Z,29.00
2019-03-31T14:29:49.006Z,28.33
2019-03-31T14:32:19.023Z,28.40
2019-03-31T14:34:48.983Z,29.07
2019-03-31T14:37:20.045Z,28.23
2019-03-31T14:39:50.007Z,27.53
2019-03-31T14:42:19.983Z,27.40
2019-03-31T14:44:49.938Z,25.90
2019-03-31T14:47:19.929Z,25.60
2019-03-31T14:49:49.886Z,22.47
2019-03-31T14:52:27.196Z,21.77
2019-03-31T14:54:51.487Z,23.77
2019-03-31T14:57:21.462Z,20.53
2019-03-31T14:59:51.483Z,20.60
2019-03-31T15:02:21.468Z,15.23
2019-03-31T15:04:51.423Z,14.13
2019-03-31T15:07:21.455Z,13.50
2019-03-31T15:09:51.434Z,12.63
2019-03-31T15:12:21.492Z,11.93
2019-03-31T15:14:51.475Z,12.20
2019-03-31T15:17:21.722Z,10.97
2019-03-31T15:19:51.682Z,11.90
2019-03-31T15:22:21.767Z,11.77
2019-03-31T15:24:51.731Z,11.80
2019-03-31T15:27:21.806Z,12.60
2019-03-31T15:29:51.787Z,12.00
2019-03-31T15:32:21.834Z,11.27
2019-03-31T15:34:51.828Z,11.87
2019-03-31T15:37:21.877Z,12.47
2019-03-31T15:39:51.850Z,11.90
2019-03-31T15:42:21.836Z,12.27
2019-03-31T15:44:51.791Z,11.10
2019-03-31T15:47:21.838Z,9.60
2019-03-31T15:49:51.793Z,9.40
2019-03-31T15:52:21.822Z,8.80
2019-03-31T15:54:51.763Z,9.53
2019-03-31T15:57:21.712Z,8.87
2019-03-31T15:59:53.003Z,8.47
2019-03-31T16:02:24.624Z,9.30
2019-03-31T16:04:55.669Z,9.20
2019-03-31T16:07:25.646Z,8.93
2019-03-31T16:09:55.600Z,7.57
2019-03-31T16:12:25.570Z,7.47
2019-03-31T16:14:55.527Z,7.90
2019-03-31T16:17:25.539Z,6.93
2019-03-31T16:19:55.497Z,6.80
2019-03-31T16:22:25.569Z,6.90
2019-03-31T16:24:59.851Z,7.23
2019-03-31T16:27:29.830Z,7.00
2019-03-31T16:29:59.786Z,6.83
2019-03-31T16:32:29.767Z,6.57
2019-03-31T16:34:59.724Z,6.43
2019-03-31T16:37:29.778Z,6.23
2019-03-31T16:39:59.764Z,6.40
2019-03-31T16:42:29.747Z,6.60
2019-03-31T16:44:59.700Z,5.80
2019-03-31T16:47:29.665Z,6.20
2019-03-31T16:49:59.627Z,4.87
2019-03-31T16:52:29.600Z,5.63
2019-03-31T16:54:59.550Z,4.50
2019-03-31T16:57:29.620Z,5.30
2019-03-31T16:59:59.636Z,5.63
2019-03-31T17:02:29.551Z,5.30
2019-03-31T17:04:59.493Z,4.90
2019-03-31T17:07:30.439Z,4.20
2019-03-31T17:10:00.548Z,5.07
2019-03-31T17:12:30.471Z,5.80
2019-03-31T17:15:00.417Z,5.33
2019-03-31T17:17:30.387Z,5.47
2019-03-31T17:20:00.514Z,5.70
2019-03-31T17:22:30.616Z,4.93
2019-03-31T17:25:00.550Z,5.20
2019-03-31T17:27:30.539Z,5.10
2019-03-31T17:30:00.484Z,4.60
2019-03-31T17:32:30.467Z,5.30
2019-03-31T17:35:00.408Z,5.03
2019-03-31T17:37:30.362Z,5.10
2019-03-31T17:40:06.489Z,5.57
2019-03-31T17:42:32.070Z,5.23
2019-03-31T17:45:02.042Z,5.67
2019-03-31T17:47:32.011Z,5.77
2019-03-31T17:50:01.960Z,5.63
2019-03-31T17:52:31.949Z,5.73
2019-03-31T17:55:01.899Z,7.90
2019-03-31T17:57:31.874Z,7.80
2019-03-31T18:00:01.830Z,13.87
2019-03-31T18:02:32.530Z,14.37
2019-03-31T18:05:02.497Z,11.80
2019-03-31T18:07:32.465Z,8.97
2019-03-31T18:10:02.410Z,7.40
2019-03-31T18:12:32.392Z,8.23
2019-03-31T18:15:02.402Z,9.60
2019-03-31T18:17:32.349Z,7.97
2019-03-31T18:20:02.466Z,8.43
2019-03-31T18:22:32.705Z,8.70
2019-03-31T18:25:02.661Z,8.53
2019-03-31T18:27:32.641Z,7.83
2019-03-31T18:30:02.752Z,7.57
2019-03-31T18:32:32.787Z,8.07
2019-03-31T18:35:02.740Z,7.20
2019-03-31T18:37:33.775Z,7.37
2019-03-31T18:40:05.263Z,7.03
2019-03-31T18:42:35.227Z,7.50
2019-03-31T18:45:08.342Z,7.63
2019-03-31T18:47:38.312Z,9.47
2019-03-31T18:50:08.913Z,9.70
2019-03-31T18:52:38.884Z,9.83
2019-03-31T18:55:23.091Z,12.53
2019-03-31T18:58:06.657Z,11.97
2019-03-31T19:00:54.485Z,13.07
2019-03-31T19:03:42.416Z,10.13
2019-03-31T19:06:17.435Z,11.97
2019-03-31T19:08:54.999Z,12.07
2019-03-31T19:11:26.594Z,10.53
2019-03-31T19:13:58.246Z,9.97
2019-03-31T19:16:36.212Z,10.90
2019-03-31T19:19:19.636Z,9.67
2019-03-31T19:21:51.219Z,9.77
2019-03-31T19:24:22.833Z,9.47
2019-03-31T19:27:12.468Z,9.90
2019-03-31T19:29:44.078Z,8.63
2019-03-31T19:32:24.583Z,9.27
2019-03-31T19:34:59.168Z,9.47
2019-03-31T19:37:30.835Z,8.67
2019-03-31T19:40:11.456Z,8.77
2019-03-31T19:42:54.937Z,8.80
2019-03-31T19:45:29.476Z,8.37
2019-03-31T19:48:04.138Z,9.20
2019-03-31T19:50:38.626Z,8.60
2019-03-31T19:53:26.419Z,8.90
2019-03-31T19:56:16.290Z,8.60
2019-03-31T19:59:04.571Z,8.80
2019-03-31T20:01:36.326Z,8.43
2019-03-31T20:04:13.686Z,8.47
2019-03-31T20:06:54.343Z,8.73
2019-03-31T20:09:42.155Z,8.00
2019-03-31T20:12:16.475Z,9.20
2019-03-31T20:14:51.040Z,9.00
2019-03-31T20:17:22.632Z,9.13
2019-03-31T20:20:09.111Z,9.20
2019-03-31T20:22:58.878Z,8.87
2019-03-31T20:25:46.670Z,8.17
2019-03-31T20:28:18.280Z,8.20
2019-03-31T20:30:49.867Z,8.47
2019-03-31T20:33:37.714Z,7.77
2019-03-31T20:36:21.455Z,8.77
2019-03-31T20:38:55.575Z,10.13
2019-03-31T20:41:29.244Z,8.90
2019-03-31T20:43:59.256Z,7.70
2019-03-31T20:46:29.199Z,7.97
2019-03-31T20:48:59.168Z,8.60
2019-03-31T20:51:29.115Z,8.33
2019-03-31T20:53:59.084Z,8.57
2019-03-31T20:56:29.069Z,8.70
2019-03-31T20:59:00.083Z,10.03
2019-03-31T21:01:30.042Z,9.67
2019-03-31T21:04:00.016Z,9.17
2019-03-31T21:06:29.955Z,9.70
2019-03-31T21:08:59.922Z,9.37
2019-03-31T21:11:29.870Z,9.63
2019-03-31T21:13:59.843Z,9.37
2019-03-31T21:16:29.791Z,8.90
2019-03-31T21:18:59.754Z,8.83
2019-03-31T21:21:29.695Z,8.47
2019-03-31T21:23:59.730Z,8.30
2019-03-31T21:26:29.684Z,9.27
2019-03-31T21:28:59.662Z,7.60
2019-03-31T21:31:29.603Z,7.43
2019-03-31T21:33:59.575Z,7.80
2019-03-31T21:36:29.528Z,7.27
2019-03-31T21:38:59.503Z,6.90
2019-03-31T21:41:29.447Z,7.20
2019-03-31T21:43:59.415Z,6.00
2019-03-31T21:46:29.362Z,6.83
2019-03-31T21:48:59.335Z,6.60
2019-03-31T21:51:29.278Z,5.87
2019-03-31T21:53:59.257Z,5.90
2019-03-31T21:56:29.204Z,5.70
2019-03-31T21:58:59.170Z,5.27
2019-03-31T22:01:29.115Z,5.10
2019-03-31T22:04:00.155Z,5.33
2019-03-31T22:06:31.165Z,5.10
2019-03-31T22:09:01.131Z,5.70
2019-03-31T22:11:32.674Z,5.60
2019-03-31T22:14:02.647Z,5.13
2019-03-31T22:16:32.588Z,5.33
2019-03-31T22:19:02.559Z,5.97
2019-03-31T22:21:32.502Z,6.10
2019-03-31T22:24:02.479Z,5.90
2019-03-31T22:26:32.500Z,5.67
2019-03-31T22:29:02.472Z,5.90
2019-03-31T22:31:32.413Z,5.87
2019-03-31T22:34:02.500Z,6.40
2019-03-31T22:36:32.683Z,6.23
2019-03-31T22:39:02.658Z,6.10
2019-03-31T22:41:34.080Z,5.90
2019-03-31T22:44:04.311Z,5.87
2019-03-31T22:46:34.259Z,5.57
2019-03-31T22:49:04.308Z,5.47
2019-03-31T22:51:34.238Z,5.93
2019-03-31T22:54:04.228Z,6.07
2019-03-31T22:56:34.170Z,5.90
2019-03-31T22:59:04.147Z,5.77
2019-03-31T23:01:34.110Z,6.03
2019-03-31T23:04:04.129Z,5.63
2019-03-31T23:06:34.097Z,5.80
2019-03-31T23:09:06.584Z,5.57
2019-03-31T23:11:36.561Z,6.03
2019-03-31T23:14:06.504Z,5.57
2019-03-31T23:16:36.538Z,5.43
2019-03-31T23:19:06.488Z,4.77
2019-03-31T23:21:36.460Z,5.60
2019-03-31T23:24:06.472Z,5.37
2019-03-31T23:26:36.456Z,5.20
2019-03-31T23:29:06.404Z,5.17
2019-03-31T23:31:36.375Z,5.73
2019-03-31T23:34:06.323Z,5.33
2019-03-31T23:36:36.290Z,5.77
2019-03-31T23:39:07.673Z,5.70
2019-03-31T23:41:37.638Z,5.60
2019-03-31T23:44:07.589Z,4.77
2019-03-31T23:46:37.564Z,4.60
2019-03-31T23:49:07.502Z,4.97
2019-03-31T23:51:37.476Z,5.70
2019-03-31T23:54:07.416Z,7.27
2019-03-31T23:56:37.394Z,6.03
2019-03-31T23:59:07.335Z,6.73
